sensor_id;sensor_type;location;lat;lon;timestamp;pressure;altitude;pressure_sealevel;temperature;humidity
36454;BME280;22478;51.740;-1.314;2024-01-30T00:00:46;100628.35;;;5.17;100.00
36454;BME280;22478;51.740;-1.314;2024-01-30T00:03:13;100631.01;;;6.39;100.00
36454;BME280;22478;51.740;-1.314;2024-01-30T00:05:40;100629.61;;;5.61;100.00
36454;BME280;22478;51.740;-1.314;2024-01-30T00:08:07;100641.15;;;5.37;100.00
36454;BME280;22478;51.740;-1.314;2024-01-30T00:10:34;100649.30;;;4.31;100.00
36454;BME280;22478;51.740;-1.314;2024-01-30T00:13:02;100640.46;;;5.88;100.00
36454;BME280;22478;51.740;-1.314;2024-01-30T00:15:28;100644.15;;;5.90;100.00
36454;BME280;22478;51.740;-1.314;2024-01-30T00:17:55;100646.81;;;6.17;100.00
36454;BME280;22478;51.740;-1.314;2024-01-30T00:20:22;100653.32;;;3.60;100.00
36454;BME280;22478;51.740;-1.314;2024-01-30T00:22:49;100649.03;;;3.66;100.00
36454;BME280;22478;51.740;-1.314;2024-01-30T00:25:16;100635.87;;;5.49;100.00
36454;BME280;22478;51.740;-1.314;2024-01-30T00:27:43;100654.84;;;3.57;100.00
36454;BME280;22478;51.740;-1.314;2024-01-30T00:30:12;100643.26;;;5.32;100.00
36454;BME280;22478;51.740;-1.314;2024-01-30T00:32:39;100651.55;;;5.07;100.00
36454;BME280;22478;51.740;-1.314;2024-01-30T00:35:06;100661.82;;;3.96;100.00
36454;BME280;22478;51.740;-1.314;2024-01-30T00:37:34;100671.47;;;4.44;100.00
36454;BME280;22478;51.740;-1.314;2024-01-30T00:40:01;100667.89;;;7.06;100.00
36454;BME280;22478;51.740;-1.314;2024-01-30T00:42:29;100657.60;;;6.44;100.00
36454;BME280;22478;51.740;-1.314;2024-01-30T00:44:57;100647.31;;;5.29;100.00
36454;BME280;22478;51.740;-1.314;2024-01-30T00:47:25;100638.59;;;5.58;100.00
36454;BME280;22478;51.740;-1.314;2024-01-30T00:49:52;100638.51;;;5.19;100.00
36454;BME280;22478;51.740;-1.314;2024-01-30T00:52:19;100649.61;;;4.26;100.00
36454;BME280;22478;51.740;-1.314;2024-01-30T00:54:46;100654.68;;;5.25;100.00
36454;BME280;22478;51.740;-1.314;2024-01-30T00:57:13;100660.49;;;6.03;100.00
36454;BME280;22478;51.740;-1.314;2024-01-30T00:59:40;100674.41;;;3.45;100.00
36454;BME280;22478;51.740;-1.314;2024-01-30T01:02:07;100675.88;;;4.19;100.00
36454;BME280;22478;51.740;-1.314;2024-01-30T01:04:34;100676.98;;;4.43;100.00
36454;BME280;22478;51.740;-1.314;2024-01-30T01:07:01;100668.72;;;5.89;100.00
36454;BME280;22478;51.740;-1.314;2024-01-30T01:09:28;100675.40;;;4.24;100.00
36454;BME280;22478;51.740;-1.314;2024-01-30T01:11:55;100669.92;;;3.82;100.00
36454;BME280;22478;51.740;-1.314;2024-01-30T01:14:22;100667.61;;;6.74;100.00
36454;BME280;22478;51.740;-1.314;2024-01-30T01:16:49;100686.71;;;3.79;100.00
36454;BME280;22478;51.740;-1.314;2024-01-30T01:19:16;100666.20;;;5.14;100.00
36454;BME280;22478;51.740;-1.314;2024-01-30T01:21:43;100670.49;;;2.31;100.00
36454;BME280;22478;51.740;-1.314;2024-01-30T01:24:10;100683.43;;;2.97;100.00
36454;BME280;22478;51.740;-1.314;2024-01-30T01:26:37;100684.19;;;2.71;100.00
36454;BME280;22478;51.740;-1.314;2024-01-30T01:29:04;100677.88;;;3.92;100.00
36454;BME280;22478;51.740;-1.314;2024-01-30T01:31:32;100673.96;;;4.89;100.00
36454;BME280;22478;51.740;-1.314;2024-01-30T01:33:59;100674.93;;;4.07;100.00
36454;BME280;22478;51.740;-1.314;2024-01-30T01:36:26;100667.47;;;5.00;100.00
36454;BME280;22478;51.740;-1.314;2024-01-30T01:38:53;100674.24;;;3.06;100.00
36454;BME280;22478;51.740;-1.314;2024-01-30T01:41:20;100670.58;;;2.63;100.00
36454;BME280;22478;51.740;-1.314;2024-01-30T01:43:47;100670.85;;;4.07;100.00
36454;BME280;22478;51.740;-1.314;2024-01-30T01:46:15;100665.68;;;4.07;100.00
36454;BME280;22478;51.740;-1.314;2024-01-30T01:48:42;100665.78;;;4.21;100.00
36454;BME280;22478;51.740;-1.314;2024-01-30T01:51:09;100671.67;;;4.26;100.00
36454;BME280;22478;51.740;-1.314;2024-01-30T01:53:37;100662.30;;;3.81;100.00
36454;BME280;22478;51.740;-1.314;2024-01-30T01:56:06;100669.30;;;4.40;100.00
36454;BME280;22478;51.740;-1.314;2024-01-30T01:58:34;100667.74;;;5.18;100.00
36454;BME280;22478;51.740;-1.314;2024-01-30T02:01:02;100669.06;;;4.55;100.00
36454;BME280;22478;51.740;-1.314;2024-01-30T02:03:31;100663.55;;;5.43;100.00
36454;BME280;22478;51.740;-1.314;2024-01-30T02:05:59;100665.84;;;4.90;100.00
36454;BME280;22478;51.740;-1.314;2024-01-30T02:08:26;100668.14;;;5.01;100.00
36454;BME280;22478;51.740;-1.314;2024-01-30T02:10:54;100670.73;;;4.91;100.00
36454;BME280;22478;51.740;-1.314;2024-01-30T02:13:21;100665.86;;;3.37;100.00
36454;BME280;22478;51.740;-1.314;2024-01-30T02:15:49;100673.73;;;2.50;100.00
36454;BME280;22478;51.740;-1.314;2024-01-30T02:18:16;100672.19;;;4.72;100.00
36454;BME280;22478;51.740;-1.314;2024-01-30T02:20:44;100668.07;;;4.79;100.00
36454;BME280;22478;51.740;-1.314;2024-01-30T02:23:12;100672.78;;;3.89;100.00
36454;BME280;22478;51.740;-1.314;2024-01-30T02:25:40;100665.74;;;5.27;100.00
36454;BME280;22478;51.740;-1.314;2024-01-30T02:28:07;100664.91;;;5.37;100.00
36454;BME280;22478;51.740;-1.314;2024-01-30T02:30:34;100666.31;;;5.05;100.00
36454;BME280;22478;51.740;-1.314;2024-01-30T02:33:01;100665.61;;;3.80;100.00
36454;BME280;22478;51.740;-1.314;2024-01-30T02:35:28;100661.48;;;5.46;100.00
36454;BME280;22478;51.740;-1.314;2024-01-30T02:37:55;100659.94;;;4.67;100.00
36454;BME280;22478;51.740;-1.314;2024-01-30T02:40:22;100660.10;;;5.56;100.00
36454;BME280;22478;51.740;-1.314;2024-01-30T02:42:49;100664.43;;;4.80;100.00
36454;BME280;22478;51.740;-1.314;2024-01-30T02:45:17;100668.83;;;3.65;100.00
36454;BME280;22478;51.740;-1.314;2024-01-30T02:47:46;100673.23;;;3.27;100.00
36454;BME280;22478;51.740;-1.314;2024-01-30T02:50:13;100673.13;;;3.44;100.00
36454;BME280;22478;51.740;-1.314;2024-01-30T02:52:40;100676.73;;;3.96;100.00
36454;BME280;22478;51.740;-1.314;2024-01-30T02:55:08;100666.87;;;5.53;100.00
36454;BME280;22478;51.740;-1.314;2024-01-30T02:57:35;100669.65;;;5.75;100.00
36454;BME280;22478;51.740;-1.314;2024-01-30T03:00:03;100681.04;;;4.41;100.00
36454;BME280;22478;51.740;-1.314;2024-01-30T03:02:30;100687.29;;;3.11;100.00
36454;BME280;22478;51.740;-1.314;2024-01-30T03:04:57;100678.15;;;4.39;100.00
36454;BME280;22478;51.740;-1.314;2024-01-30T03:07:24;100676.98;;;5.50;100.00
36454;BME280;22478;51.740;-1.314;2024-01-30T03:09:51;100683.46;;;3.74;100.00
36454;BME280;22478;51.740;-1.314;2024-01-30T03:12:18;100680.03;;;5.93;100.00
36454;BME280;22478;51.740;-1.314;2024-01-30T03:14:45;100681.79;;;5.71;100.00
36454;BME280;22478;51.740;-1.314;2024-01-30T03:17:12;100686.73;;;4.77;100.00
36454;BME280;22478;51.740;-1.314;2024-01-30T03:19:39;100684.53;;;6.26;100.00
36454;BME280;22478;51.740;-1.314;2024-01-30T03:22:07;100687.63;;;5.65;100.00
36454;BME280;22478;51.740;-1.314;2024-01-30T03:24:34;100687.51;;;6.80;100.00
36454;BME280;22478;51.740;-1.314;2024-01-30T03:27:02;100691.55;;;5.39;100.00
36454;BME280;22478;51.740;-1.314;2024-01-30T03:29:29;100689.02;;;6.06;100.00
36454;BME280;22478;51.740;-1.314;2024-01-30T03:31:56;100702.63;;;3.63;100.00
36454;BME280;22478;51.740;-1.314;2024-01-30T03:34:23;100702.78;;;3.06;100.00
36454;BME280;22478;51.740;-1.314;2024-01-30T03:36:50;100708.69;;;3.91;100.00
36454;BME280;22478;51.740;-1.314;2024-01-30T03:39:17;100708.79;;;3.15;100.00
36454;BME280;22478;51.740;-1.314;2024-01-30T03:41:45;100714.97;;;2.74;100.00
36454;BME280;22478;51.740;-1.314;2024-01-30T03:44:12;100722.63;;;2.04;100.00
36454;BME280;22478;51.740;-1.314;2024-01-30T03:46:39;100718.18;;;3.59;100.00
36454;BME280;22478;51.740;-1.314;2024-01-30T03:49:06;100721.37;;;3.05;100.00
36454;BME280;22478;51.740;-1.314;2024-01-30T03:51:33;100726.16;;;3.45;100.00
36454;BME280;22478;51.740;-1.314;2024-01-30T03:54:00;100725.27;;;4.28;100.00
36454;BME280;22478;51.740;-1.314;2024-01-30T03:56:27;100724.91;;;3.56;100.00
36454;BME280;22478;51.740;-1.314;2024-01-30T03:58:54;100733.19;;;2.90;100.00
36454;BME280;22478;51.740;-1.314;2024-01-30T04:01:22;100730.35;;;4.47;100.00
36454;BME280;22478;51.740;-1.314;2024-01-30T04:03:49;100730.35;;;3.16;100.00
36454;BME280;22478;51.740;-1.314;2024-01-30T04:06:16;100729.78;;;3.51;100.00
36454;BME280;22478;51.740;-1.314;2024-01-30T04:08:43;100737.57;;;3.56;100.00
36454;BME280;22478;51.740;-1.314;2024-01-30T04:11:11;100743.87;;;4.57;100.00
36454;BME280;22478;51.740;-1.314;2024-01-30T04:13:38;100747.40;;;2.65;100.00
36454;BME280;22478;51.740;-1.314;2024-01-30T04:16:06;100736.60;;;4.86;100.00
36454;BME280;22478;51.740;-1.314;2024-01-30T04:18:33;100742.76;;;5.51;100.00
36454;BME280;22478;51.740;-1.314;2024-01-30T04:21:00;100750.82;;;3.63;100.00
36454;BME280;22478;51.740;-1.314;2024-01-30T04:23:27;100749.53;;;4.97;100.00
36454;BME280;22478;51.740;-1.314;2024-01-30T04:25:54;100751.99;;;4.45;100.00
36454;BME280;22478;51.740;-1.314;2024-01-30T04:28:21;100763.72;;;1.86;100.00
36454;BME280;22478;51.740;-1.314;2024-01-30T04:30:48;100769.70;;;3.02;100.00
36454;BME280;22478;51.740;-1.314;2024-01-30T04:33:16;100763.16;;;3.60;100.00
36454;BME280;22478;51.740;-1.314;2024-01-30T04:35:43;100774.51;;;2.41;100.00
36454;BME280;22478;51.740;-1.314;2024-01-30T04:38:10;100778.44;;;2.21;100.00
36454;BME280;22478;51.740;-1.314;2024-01-30T04:40:37;100792.53;;;2.33;100.00
36454;BME280;22478;51.740;-1.314;2024-01-30T04:43:04;100797.18;;;1.83;100.00
36454;BME280;22478;51.740;-1.314;2024-01-30T04:45:31;100798.87;;;2.17;100.00
36454;BME280;22478;51.740;-1.314;2024-01-30T04:47:59;100807.66;;;1.15;100.00
36454;BME280;22478;51.740;-1.314;2024-01-30T04:50:26;100807.65;;;2.89;100.00
36454;BME280;22478;51.740;-1.314;2024-01-30T04:52:53;100811.46;;;3.05;100.00
36454;BME280;22478;51.740;-1.314;2024-01-30T04:55:21;100820.53;;;2.49;100.00
36454;BME280;22478;51.740;-1.314;2024-01-30T04:57:48;100831.52;;;0.41;100.00
36454;BME280;22478;51.740;-1.314;2024-01-30T05:00:16;100841.34;;;0.42;100.00
36454;BME280;22478;51.740;-1.314;2024-01-30T05:02:43;100844.93;;;2.12;100.00
36454;BME280;22478;51.740;-1.314;2024-01-30T05:05:10;100850.79;;;0.26;100.00
36454;BME280;22478;51.740;-1.314;2024-01-30T05:07:40;100861.82;;;1.21;100.00
36454;BME280;22478;51.740;-1.314;2024-01-30T05:10:09;100858.60;;;2.66;100.00
36454;BME280;22478;51.740;-1.314;2024-01-30T05:12:36;100878.25;;;-0.09;100.00
36454;BME280;22478;51.740;-1.314;2024-01-30T05:15:04;100887.72;;;-0.46;100.00
36454;BME280;22478;51.740;-1.314;2024-01-30T05:17:31;100890.99;;;1.29;100.00
36454;BME280;22478;51.740;-1.314;2024-01-30T05:19:59;100889.32;;;2.02;100.00
36454;BME280;22478;51.740;-1.314;2024-01-30T05:22:26;100902.93;;;0.28;100.00
36454;BME280;22478;51.740;-1.314;2024-01-30T05:24:53;100915.25;;;-0.93;100.00
36454;BME280;22478;51.740;-1.314;2024-01-30T05:27:20;100922.93;;;-0.35;100.00
36454;BME280;22478;51.740;-1.314;2024-01-30T05:29:47;100920.86;;;1.42;100.00
36454;BME280;22478;51.740;-1.314;2024-01-30T05:32:15;100924.26;;;1.72;100.00
36454;BME280;22478;51.740;-1.314;2024-01-30T05:34:42;100928.28;;;2.67;100.00
36454;BME280;22478;51.740;-1.314;2024-01-30T05:37:09;100937.91;;;2.04;100.00
36454;BME280;22478;51.740;-1.314;2024-01-30T05:39:36;100949.83;;;0.02;100.00
36454;BME280;22478;51.740;-1.314;2024-01-30T05:42:04;100946.93;;;2.18;100.00
36454;BME280;22478;51.740;-1.314;2024-01-30T05:44:31;100953.71;;;1.11;100.00
36454;BME280;22478;51.740;-1.314;2024-01-30T05:46:58;100959.15;;;1.70;100.00
36454;BME280;22478;51.740;-1.314;2024-01-30T05:49:25;100965.64;;;0.45;100.00
36454;BME280;22478;51.740;-1.314;2024-01-30T05:51:52;100964.52;;;3.46;100.00
36454;BME280;22478;51.740;-1.314;2024-01-30T05:54:19;100985.94;;;-0.79;100.00
36454;BME280;22478;51.740;-1.314;2024-01-30T05:56:46;100984.21;;;0.31;100.00
36454;BME280;22478;51.740;-1.314;2024-01-30T05:59:14;100993.85;;;-1.49;100.00
36454;BME280;22478;51.740;-1.314;2024-01-30T06:01:45;100989.72;;;-0.46;100.00
36454;BME280;22478;51.740;-1.314;2024-01-30T06:04:13;100998.02;;;-0.95;100.00
36454;BME280;22478;51.740;-1.314;2024-01-30T06:06:40;100999.31;;;0.67;100.00
36454;BME280;22478;51.740;-1.314;2024-01-30T06:09:07;101010.65;;;-0.20;100.00
36454;BME280;22478;51.740;-1.314;2024-01-30T06:11:34;101016.57;;;0.77;100.00
36454;BME280;22478;51.740;-1.314;2024-01-30T06:14:01;101026.02;;;-0.82;100.00
36454;BME280;22478;51.740;-1.314;2024-01-30T06:16:29;101028.98;;;-0.88;100.00
36454;BME280;22478;51.740;-1.314;2024-01-30T06:18:56;101033.22;;;-0.31;100.00
36454;BME280;22478;51.740;-1.314;2024-01-30T06:21:24;101037.10;;;-0.90;100.00
36454;BME280;22478;51.740;-1.314;2024-01-30T06:23:52;101042.76;;;-1.34;100.00
36454;BME280;22478;51.740;-1.314;2024-01-30T06:26:19;101045.12;;;-1.94;100.00
36454;BME280;22478;51.740;-1.314;2024-01-30T06:28:46;101043.08;;;1.04;100.00
36454;BME280;22478;51.740;-1.314;2024-01-30T06:31:13;101051.13;;;-0.22;100.00
36454;BME280;22478;51.740;-1.314;2024-01-30T06:33:40;101053.76;;;-0.58;100.00
36454;BME280;22478;51.740;-1.314;2024-01-30T06:36:08;101060.34;;;0.74;100.00
36454;BME280;22478;51.740;-1.314;2024-01-30T06:38:35;101068.72;;;-1.35;100.00
36454;BME280;22478;51.740;-1.314;2024-01-30T06:41:03;101078.70;;;-1.47;100.00
36454;BME280;22478;51.740;-1.314;2024-01-30T06:43:30;101085.04;;;-1.59;100.00
36454;BME280;22478;51.740;-1.314;2024-01-30T06:45:57;101088.30;;;-0.53;100.00
36454;BME280;22478;51.740;-1.314;2024-01-30T06:48:24;101099.36;;;-2.03;100.00
36454;BME280;22478;51.740;-1.314;2024-01-30T06:50:53;101097.53;;;0.30;100.00
36454;BME280;22478;51.740;-1.314;2024-01-30T06:53:21;101107.77;;;-0.58;100.00
36454;BME280;22478;51.740;-1.314;2024-01-30T06:55:48;101114.34;;;-1.05;100.00
36454;BME280;22478;51.740;-1.314;2024-01-30T06:58:15;101118.10;;;-1.95;100.00
36454;BME280;22478;51.740;-1.314;2024-01-30T07:00:42;101122.14;;;-1.36;100.00
36454;BME280;22478;51.740;-1.314;2024-01-30T07:03:09;101122.34;;;-0.87;100.00
36454;BME280;22478;51.740;-1.314;2024-01-30T07:05:36;101120.57;;;-0.15;100.00
36454;BME280;22478;51.740;-1.314;2024-01-30T07:08:04;101130.04;;;0.85;100.00
36454;BME280;22478;51.740;-1.314;2024-01-30T07:10:32;101143.73;;;-0.35;100.00
36454;BME280;22478;51.740;-1.314;2024-01-30T07:13:00;101144.99;;;1.99;100.00
36454;BME280;22478;51.740;-1.314;2024-01-30T07:15:28;101152.61;;;1.42;100.00
36454;BME280;22478;51.740;-1.314;2024-01-30T07:17:55;101150.99;;;0.59;100.00
36454;BME280;22478;51.740;-1.314;2024-01-30T07:20:22;101149.46;;;-0.90;100.00
36454;BME280;22478;51.740;-1.314;2024-01-30T07:22:50;101163.04;;;-1.09;100.00
36454;BME280;22478;51.740;-1.314;2024-01-30T07:25:17;101163.39;;;-2.11;100.00
36454;BME280;22478;51.740;-1.314;2024-01-30T07:27:44;101165.13;;;-0.80;100.00
36454;BME280;22478;51.740;-1.314;2024-01-30T07:30:12;101177.71;;;-1.29;100.00
36454;BME280;22478;51.740;-1.314;2024-01-30T07:32:39;101175.82;;;0.08;100.00
36454;BME280;22478;51.740;-1.314;2024-01-30T07:35:07;101182.47;;;-0.60;100.00
36454;BME280;22478;51.740;-1.314;2024-01-30T07:37:34;101182.81;;;0.64;100.00
36454;BME280;22478;51.740;-1.314;2024-01-30T07:40:03;101194.35;;;-0.39;100.00
36454;BME280;22478;51.740;-1.314;2024-01-30T07:42:30;101209.23;;;-0.71;100.00
36454;BME280;22478;51.740;-1.314;2024-01-30T07:44:58;101212.68;;;0.18;100.00
36454;BME280;22478;51.740;-1.314;2024-01-30T07:47:26;101215.02;;;0.36;100.00
36454;BME280;22478;51.740;-1.314;2024-01-30T07:49:53;101218.83;;;2.28;100.00
36454;BME280;22478;51.740;-1.314;2024-01-30T07:52:21;101218.62;;;1.41;100.00
36454;BME280;22478;51.740;-1.314;2024-01-30T07:55:03;101226.65;;;-0.72;100.00
36454;BME280;22478;51.740;-1.314;2024-01-30T07:57:30;101228.79;;;-1.34;100.00
36454;BME280;22478;51.740;-1.314;2024-01-30T07:59:58;101235.90;;;-1.29;100.00
36454;BME280;22478;51.740;-1.314;2024-01-30T08:02:25;101240.87;;;-0.22;100.00
36454;BME280;22478;51.740;-1.314;2024-01-30T08:04:52;101240.96;;;-0.67;100.00
36454;BME280;22478;51.740;-1.314;2024-01-30T08:07:19;101242.09;;;-0.11;100.00
36454;BME280;22478;51.740;-1.314;2024-01-30T08:09:46;101249.71;;;-1.77;100.00
36454;BME280;22478;51.740;-1.314;2024-01-30T08:12:13;101250.87;;;0.30;100.00
36454;BME280;22478;51.740;-1.314;2024-01-30T08:14:41;101261.21;;;-1.22;100.00
36454;BME280;22478;51.740;-1.314;2024-01-30T08:17:08;101259.12;;;0.43;100.00
36454;BME280;22478;51.740;-1.314;2024-01-30T08:19:35;101271.86;;;-0.97;100.00
36454;BME280;22478;51.740;-1.314;2024-01-30T08:22:03;101265.32;;;1.81;100.00
36454;BME280;22478;51.740;-1.314;2024-01-30T08:24:31;101270.05;;;0.78;100.00
36454;BME280;22478;51.740;-1.314;2024-01-30T08:26:58;101276.39;;;0.94;100.00
36454;BME280;22478;51.740;-1.314;2024-01-30T08:29:25;101275.69;;;1.55;100.00
36454;BME280;22478;51.740;-1.314;2024-01-30T08:31:52;101282.96;;;0.28;100.00
36454;BME280;22478;51.740;-1.314;2024-01-30T08:34:19;101285.30;;;0.43;100.00
36454;BME280;22478;51.740;-1.314;2024-01-30T08:36:46;101286.37;;;0.72;100.00
36454;BME280;22478;51.740;-1.314;2024-01-30T08:39:13;101287.08;;;1.18;100.00
36454;BME280;22478;51.740;-1.314;2024-01-30T08:41:40;101289.50;;;-0.06;100.00
36454;BME280;22478;51.740;-1.314;2024-01-30T08:44:07;101294.68;;;0.70;100.00
36454;BME280;22478;51.740;-1.314;2024-01-30T08:46:35;101302.70;;;0.06;100.00
36454;BME280;22478;51.740;-1.314;2024-01-30T08:49:02;101310.74;;;-1.97;100.00
36454;BME280;22478;51.740;-1.314;2024-01-30T08:51:29;101304.88;;;0.96;100.00
36454;BME280;22478;51.740;-1.314;2024-01-30T08:53:56;101312.87;;;0.14;100.00
36454;BME280;22478;51.740;-1.314;2024-01-30T08:56:23;101317.83;;;-0.21;100.00
36454;BME280;22478;51.740;-1.314;2024-01-30T08:58:50;101328.18;;;0.01;100.00
36454;BME280;22478;51.740;-1.314;2024-01-30T09:01:17;101328.57;;;2.02;100.00
36454;BME280;22478;51.740;-1.314;2024-01-30T09:03:44;101330.31;;;0.95;100.00
36454;BME280;22478;51.740;-1.314;2024-01-30T09:06:12;101341.87;;;1.40;100.00
36454;BME280;22478;51.740;-1.314;2024-01-30T09:08:39;101353.27;;;-1.60;100.00
36454;BME280;22478;51.740;-1.314;2024-01-30T09:11:09;101347.03;;;1.41;100.00
36454;BME280;22478;51.740;-1.314;2024-01-30T09:13:36;101361.41;;;-0.97;100.00
36454;BME280;22478;51.740;-1.314;2024-01-30T09:16:04;101359.04;;;0.77;100.00
36454;BME280;22478;51.740;-1.314;2024-01-30T09:18:32;101365.12;;;0.86;100.00
36454;BME280;22478;51.740;-1.314;2024-01-30T09:21:00;101359.69;;;1.99;100.00
36454;BME280;22478;51.740;-1.314;2024-01-30T09:23:27;101373.29;;;-0.08;100.00
36454;BME280;22478;51.740;-1.314;2024-01-30T09:25:55;101377.69;;;-0.38;100.00
36454;BME280;22478;51.740;-1.314;2024-01-30T09:28:22;101376.67;;;1.54;100.00
36454;BME280;22478;51.740;-1.314;2024-01-30T09:30:49;101393.85;;;-1.54;100.00
36454;BME280;22478;51.740;-1.314;2024-01-30T09:33:17;101397.14;;;-0.75;100.00
36454;BME280;22478;51.740;-1.314;2024-01-30T09:35:44;101395.25;;;2.21;100.00
36454;BME280;22478;51.740;-1.314;2024-01-30T09:38:11;101405.15;;;0.25;100.00
36454;BME280;22478;51.740;-1.314;2024-01-30T09:40:38;101408.67;;;0.00;100.00
36454;BME280;22478;51.740;-1.314;2024-01-30T09:43:05;101411.21;;;-0.45;100.00
36454;BME280;22478;51.740;-1.314;2024-01-30T09:45:32;101408.15;;;2.32;100.00
36454;BME280;22478;51.740;-1.314;2024-01-30T09:48:00;101420.95;;;-0.16;100.00
36454;BME280;22478;51.740;-1.314;2024-01-30T09:50:27;101421.41;;;0.51;100.00
36454;BME280;22478;51.740;-1.314;2024-01-30T09:52:55;101412.11;;;1.99;100.00
36454;BME280;22478;51.740;-1.314;2024-01-30T09:55:24;101421.42;;;0.62;100.00
36454;BME280;22478;51.740;-1.314;2024-01-30T09:57:52;101422.07;;;1.82;100.00
36454;BME280;22478;51.740;-1.314;2024-01-30T10:00:20;101421.82;;;2.77;100.00
36454;BME280;22478;51.740;-1.314;2024-01-30T10:02:47;101438.51;;;-0.04;100.00
36454;BME280;22478;51.740;-1.314;2024-01-30T10:05:19;101433.39;;;2.08;100.00
36454;BME280;22478;51.740;-1.314;2024-01-30T10:07:55;101438.48;;;1.69;100.00
36454;BME280;22478;51.740;-1.314;2024-01-30T10:10:22;101444.88;;;2.33;100.00
36454;BME280;22478;51.740;-1.314;2024-01-30T10:12:49;101451.34;;;2.41;100.00
36454;BME280;22478;51.740;-1.314;2024-01-30T10:15:17;101461.48;;;0.94;100.00
36454;BME280;22478;51.740;-1.314;2024-01-30T10:17:45;101467.66;;;1.12;100.00
36454;BME280;22478;51.740;-1.314;2024-01-30T10:20:13;101480.44;;;0.76;100.00
36454;BME280;22478;51.740;-1.314;2024-01-30T10:22:40;101474.89;;;1.79;100.00
36454;BME280;22478;51.740;-1.314;2024-01-30T10:25:09;101483.65;;;1.09;100.00
36454;BME280;22478;51.740;-1.314;2024-01-30T10:27:39;101490.34;;;0.75;100.00
36454;BME280;22478;51.740;-1.314;2024-01-30T10:30:08;101487.49;;;2.12;100.00
36454;BME280;22478;51.740;-1.314;2024-01-30T10:32:35;101493.84;;;3.42;100.00
36454;BME280;22478;51.740;-1.314;2024-01-30T10:35:02;101510.21;;;-0.04;100.00
36454;BME280;22478;51.740;-1.314;2024-01-30T10:37:30;101516.36;;;-0.31;100.00
36454;BME280;22478;51.740;-1.314;2024-01-30T10:40:02;101525.71;;;-0.47;100.00
36454;BME280;22478;51.740;-1.314;2024-01-30T10:42:32;101526.52;;;0.24;100.00
36454;BME280;22478;51.740;-1.314;2024-01-30T10:45:05;101528.25;;;-0.64;100.00
36454;BME280;22478;51.740;-1.314;2024-01-30T10:47:35;101530.69;;;1.31;100.00
36454;BME280;22478;51.740;-1.314;2024-01-30T10:50:03;101547.68;;;-1.28;100.00
36454;BME280;22478;51.740;-1.314;2024-01-30T10:52:32;101550.16;;;-0.14;100.00
36454;BME280;22478;51.740;-1.314;2024-01-30T10:55:00;101551.57;;;-0.38;100.00
36454;BME280;22478;51.740;-1.314;2024-01-30T10:57:28;101558.36;;;-0.68;100.00
36454;BME280;22478;51.740;-1.314;2024-01-30T10:59:57;101564.88;;;-1.62;100.00
36454;BME280;22478;51.740;-1.314;2024-01-30T11:02:25;101566.86;;;-0.02;100.00
36454;BME280;22478;51.740;-1.314;2024-01-30T11:04:58;101572.77;;;-0.87;100.00
36454;BME280;22478;51.740;-1.314;2024-01-30T11:07:26;101568.80;;;1.22;100.00
36454;BME280;22478;51.740;-1.314;2024-01-30T11:10:04;101583.79;;;-0.44;100.00
36454;BME280;22478;51.740;-1.314;2024-01-30T11:12:33;101585.42;;;-1.15;100.00
36454;BME280;22478;51.740;-1.314;2024-01-30T11:15:05;101587.53;;;-1.30;100.00
36454;BME280;22478;51.740;-1.314;2024-01-30T11:17:42;101590.16;;;-0.26;100.00
36454;BME280;22478;51.740;-1.314;2024-01-30T11:20:11;101605.12;;;-0.21;100.00
36454;BME280;22478;51.740;-1.314;2024-01-30T11:22:41;101602.34;;;-0.49;100.00
36454;BME280;22478;51.740;-1.314;2024-01-30T11:25:11;101600.41;;;-0.56;100.00
36454;BME280;22478;51.740;-1.314;2024-01-30T11:27:39;101605.40;;;-0.02;100.00
36454;BME280;22478;51.740;-1.314;2024-01-30T11:30:07;101600.78;;;0.20;100.00
36454;BME280;22478;51.740;-1.314;2024-01-30T11:32:35;101603.56;;;-0.24;100.00
36454;BME280;22478;51.740;-1.314;2024-01-30T11:35:03;101599.08;;;1.06;100.00
36454;BME280;22478;51.740;-1.314;2024-01-30T11:37:31;101602.31;;;0.23;100.00
36454;BME280;22478;51.740;-1.314;2024-01-30T11:39:58;101618.74;;;-0.73;100.00
36454;BME280;22478;51.740;-1.314;2024-01-30T11:42:26;101618.03;;;-0.46;100.00
36454;BME280;22478;51.740;-1.314;2024-01-30T11:44:53;101609.91;;;-0.93;100.00
36454;BME280;22478;51.740;-1.314;2024-01-30T11:47:22;101599.53;;;1.08;100.00
36454;BME280;22478;51.740;-1.314;2024-01-30T11:49:50;101594.71;;;1.32;100.00
36454;BME280;22478;51.740;-1.314;2024-01-30T11:52:17;101603.71;;;0.69;100.00
36454;BME280;22478;51.740;-1.314;2024-01-30T11:54:44;101601.64;;;0.56;100.00
36454;BME280;22478;51.740;-1.314;2024-01-30T11:57:12;101610.18;;;0.11;100.00
36454;BME280;22478;51.740;-1.314;2024-01-30T11:59:39;101612.72;;;-0.70;100.00
36454;BME280;22478;51.740;-1.314;2024-01-30T12:02:06;101613.12;;;-0.71;100.00
36454;BME280;22478;51.740;-1.314;2024-01-30T12:04:33;101615.23;;;-0.84;100.00
36454;BME280;22478;51.740;-1.314;2024-01-30T12:07:00;101615.14;;;1.46;100.00
36454;BME280;22478;51.740;-1.314;2024-01-30T12:09:27;101627.02;;;-0.71;100.00
36454;BME280;22478;51.740;-1.314;2024-01-30T12:11:54;101618.60;;;0.09;100.00
36454;BME280;22478;51.740;-1.314;2024-01-30T12:14:22;101629.42;;;-1.32;100.00
36454;BME280;22478;51.740;-1.314;2024-01-30T12:16:50;101625.42;;;1.11;100.00
36454;BME280;22478;51.740;-1.314;2024-01-30T12:19:25;101634.38;;;-0.96;100.00
36454;BME280;22478;51.740;-1.314;2024-01-30T12:21:56;101636.20;;;-1.06;100.00
36454;BME280;22478;51.740;-1.314;2024-01-30T12:24:24;101630.17;;;1.34;100.00
36454;BME280;22478;51.740;-1.314;2024-01-30T12:26:51;101639.55;;;0.47;100.00
36454;BME280;22478;51.740;-1.314;2024-01-30T12:29:20;101640.79;;;-0.39;100.00
36454;BME280;22478;51.740;-1.314;2024-01-30T12:31:47;101639.11;;;-0.45;100.00
36454;BME280;22478;51.740;-1.314;2024-01-30T12:34:14;101637.42;;;1.74;100.00
36454;BME280;22478;51.740;-1.314;2024-01-30T12:36:41;101637.80;;;0.74;100.00
36454;BME280;22478;51.740;-1.314;2024-01-30T12:39:11;101641.21;;;2.72;100.00